Time;durP1;ratioP1;P1;durP2;ratioP2;P2;SDS_P1;SDS_P2;PMS_P1;PMS_P2;Temp;Humidity;BMP_temperature;BMP_pressure;BME280_temperature;BME280_humidity;BME280_pressure;Samples;Min_cycle;Max_cycle;Signal;HPM_P1;HPM_P2
2024/01/07 00:01:56;;;;;;;48.30;25.27;;;4.50;99.90;;;;;;5095750;28;20192;-81
2024/01/07 00:04:22;;;;;;;46.30;23.10;;;4.60;99.90;;;;;;5114886;28;20268;-83
2024/01/07 00:06:47;;;;;;;52.43;25.03;;;4.60;99.90;;;;;;5111924;28;20192;-83
2024/01/07 00:09:13;;;;;;;53.90;25.47;;;4.60;99.90;;;;;;5111181;28;20223;-82
2024/01/07 00:11:39;;;;;;;55.57;27.37;;;4.50;99.90;;;;;;5095780;28;20207;-83
2024/01/07 00:14:05;;;;;;;55.20;25.92;;;4.50;99.90;;;;;;5090023;28;20191;-83
2024/01/07 00:16:30;;;;;;;54.03;25.03;;;4.50;1.00;;;;;;5111805;28;20562;-83
2024/01/07 00:18:58;;;;;;;53.93;27.73;;;4.50;1.00;;;;;;5110835;28;20325;-83
2024/01/07 00:21:24;;;;;;;54.33;26.27;;;4.50;1.00;;;;;;5109185;28;20203;-84
2024/01/07 00:23:50;;;;;;;57.80;28.20;;;4.50;1.00;;;;;;5092261;28;20202;-83
2024/01/07 00:26:15;;;;;;;63.27;26.60;;;4.50;1.00;;;;;;5107067;28;20199;-83
2024/01/07 00:28:41;;;;;;;60.77;29.77;;;4.60;1.00;;;;;;5110292;28;20210;-83
2024/01/07 00:31:09;;;;;;;57.90;27.77;;;4.60;1.00;;;;;;5090521;28;20650;-83
2024/01/07 00:33:35;;;;;;;61.72;25.40;;;4.50;1.00;;;;;;5111114;28;20287;-83
2024/01/07 00:36:01;;;;;;;50.47;25.95;;;4.50;1.00;;;;;;5114249;28;20181;-83
2024/01/07 00:38:27;;;;;;;55.13;27.33;;;4.50;1.00;;;;;;5079477;28;20580;-82
2024/01/07 00:40:53;;;;;;;55.17;26.00;;;4.50;1.00;;;;;;5112370;28;20179;-83
2024/01/07 00:43:18;;;;;;;57.07;25.97;;;4.50;1.00;;;;;;5108976;28;20176;-83
2024/01/07 00:45:44;;;;;;;54.53;25.63;;;4.50;1.00;;;;;;5113320;28;20221;-83
2024/01/07 00:48:09;;;;;;;55.53;26.60;;;4.50;1.00;;;;;;5102232;28;20734;-82
2024/01/07 00:50:35;;;;;;;52.00;24.50;;;4.50;1.00;;;;;;5098504;28;20188;-84
2024/01/07 00:53:01;;;;;;;53.03;26.30;;;4.50;1.00;;;;;;5117061;28;20218;-83
2024/01/07 00:55:27;;;;;;;57.80;27.23;;;4.50;1.00;;;;;;5111911;28;20263;-83
2024/01/07 00:57:52;;;;;;;53.03;25.60;;;4.50;1.00;;;;;;5113982;28;20211;-83
2024/01/07 01:00:18;;;;;;;54.20;24.97;;;4.50;1.00;;;;;;5119816;28;20653;-85
2024/01/07 01:02:45;;;;;;;55.75;25.50;;;4.50;1.00;;;;;;5099002;28;20184;-85
2024/01/07 01:05:10;;;;;;;51.95;25.67;;;4.50;1.00;;;;;;5098683;28;20279;-84
2024/01/07 01:07:36;;;;;;;45.53;23.73;;;4.50;1.00;;;;;;5096576;28;20266;-83
2024/01/07 01:10:01;;;;;;;51.57;22.90;;;4.50;1.00;;;;;;5108111;28;20528;-83
2024/01/07 01:12:27;;;;;;;51.53;23.80;;;4.40;1.00;;;;;;5102985;28;20211;-83
2024/01/07 01:14:52;;;;;;;43.80;22.37;;;4.40;1.00;;;;;;5117121;28;20248;-83
2024/01/07 01:17:18;;;;;;;45.80;23.90;;;4.40;1.00;;;;;;5113467;28;20677;-84
2024/01/07 01:19:45;;;;;;;42.63;23.17;;;4.40;1.00;;;;;;5111917;28;20200;-83
2024/01/07 01:22:11;;;;;;;45.42;23.42;;;4.40;1.00;;;;;;5105765;28;20189;-83
2024/01/07 01:24:37;;;;;;;42.97;21.63;;;4.50;1.00;;;;;;5090448;28;20202;-83
2024/01/07 01:27:02;;;;;;;36.20;20.27;;;4.50;1.00;;;;;;5115287;28;20187;-82
2024/01/07 01:29:28;;;;;;;37.57;18.90;;;4.50;1.00;;;;;;5110319;28;20228;-85
2024/01/07 01:31:53;;;;;;;39.37;20.83;;;4.50;1.00;;;;;;5108559;28;20283;-83
2024/01/07 01:34:19;;;;;;;40.97;21.57;;;4.50;1.00;;;;;;5109495;28;20566;-82
2024/01/07 01:36:44;;;;;;;35.70;19.23;;;4.50;1.00;;;;;;5093398;28;20172;-83
2024/01/07 01:39:10;;;;;;;38.53;20.67;;;4.50;1.00;;;;;;5110357;28;20285;-83
2024/01/07 01:41:36;;;;;;;39.00;17.80;;;4.50;1.00;;;;;;5103338;28;20180;-83
2024/01/07 01:44:04;;;;;;;41.30;18.90;;;4.50;1.00;;;;;;5084652;28;20189;-83
2024/01/07 01:46:29;;;;;;;35.08;18.55;;;4.50;1.00;;;;;;5110618;28;20188;-86
2024/01/07 01:48:55;;;;;;;32.50;16.90;;;4.50;1.00;;;;;;5089927;28;20203;-82
2024/01/07 01:51:21;;;;;;;37.47;21.07;;;4.50;1.00;;;;;;5090209;28;20187;-83
2024/01/07 01:53:49;;;;;;;41.50;20.90;;;4.50;1.00;;;;;;5104621;28;20501;-82
2024/01/07 01:56:16;;;;;;;41.50;19.33;;;4.50;1.00;;;;;;5108500;28;20695;-82
2024/01/07 01:58:42;;;;;;;34.45;18.08;;;4.50;1.00;;;;;;5102288;28;20765;-82
2024/01/07 02:01:08;;;;;;;35.38;18.15;;;4.50;1.00;;;;;;5108107;28;21283;-82
2024/01/07 02:03:33;;;;;;;40.33;18.83;;;4.50;1.00;;;;;;5104136;28;20212;-83
2024/01/07 02:05:59;;;;;;;35.73;18.30;;;4.50;1.00;;;;;;5105630;28;20226;-83
2024/01/07 02:08:25;;;;;;;35.97;17.80;;;4.40;1.00;;;;;;5093062;28;20246;-82
2024/01/07 02:10:51;;;;;;;32.80;15.38;;;4.40;1.00;;;;;;5109783;28;20215;-83
2024/01/07 02:13:16;;;;;;;31.43;15.27;;;4.40;1.00;;;;;;5111754;28;20208;-82
2024/01/07 02:15:43;;;;;;;30.67;15.80;;;4.40;1.00;;;;;;5107230;28;20191;-84
2024/01/07 02:18:09;;;;;;;28.10;15.40;;;4.40;1.00;;;;;;5093987;28;20207;-83
2024/01/07 02:20:35;;;;;;;26.83;13.27;;;4.40;1.00;;;;;;5108099;28;20180;-83
2024/01/07 02:23:01;;;;;;;32.35;14.15;;;4.40;1.00;;;;;;5096632;28;20180;-83
2024/01/07 02:25:27;;;;;;;26.02;12.88;;;4.40;1.00;;;;;;5115675;28;20259;-84
2024/01/07 02:27:52;;;;;;;27.40;15.20;;;4.50;1.00;;;;;;5109305;28;20640;-84
2024/01/07 02:30:18;;;;;;;25.67;14.60;;;4.50;1.00;;;;;;5096272;28;20649;-84
2024/01/07 02:32:44;;;;;;;27.90;15.87;;;4.50;1.00;;;;;;5116507;28;20214;-84
2024/01/07 02:35:09;;;;;;;31.07;16.80;;;4.50;1.00;;;;;;5099207;28;20176;-84
2024/01/07 02:37:35;;;;;;;24.53;14.17;;;4.50;1.00;;;;;;5114034;28;20183;-85
2024/01/07 02:40:00;;;;;;;28.20;15.20;;;4.50;1.00;;;;;;5109169;28;20199;-83
2024/01/07 02:42:26;;;;;;;25.47;15.97;;;4.50;1.00;;;;;;5114279;28;20207;-83
2024/01/07 02:44:51;;;;;;;30.57;15.57;;;4.50;1.00;;;;;;5113289;28;20290;-83
2024/01/07 02:47:17;;;;;;;31.03;16.07;;;4.50;1.00;;;;;;5099193;28;20180;-82
2024/01/07 02:49:42;;;;;;;33.00;15.00;;;4.50;1.00;;;;;;5106488;28;20320;-83
2024/01/07 02:52:08;;;;;;;34.33;16.50;;;4.50;1.00;;;;;;5105715;28;20290;-83
2024/01/07 02:54:33;;;;;;;34.30;17.33;;;4.50;1.00;;;;;;5116693;28;20252;-84
2024/01/07 02:56:59;;;;;;;29.67;17.33;;;4.50;1.00;;;;;;5092417;28;20194;-82
2024/01/07 02:59:25;;;;;;;31.63;16.40;;;4.40;1.00;;;;;;5115263;28;20210;-83
2024/01/07 03:01:50;;;;;;;29.40;15.30;;;4.40;1.00;;;;;;5091779;28;20183;-83
2024/01/07 03:04:16;;;;;;;28.30;16.83;;;4.40;1.00;;;;;;5107114;28;20572;-83
2024/01/07 03:06:42;;;;;;;32.90;15.70;;;4.40;1.00;;;;;;5111307;28;20249;-82
2024/01/07 03:09:07;;;;;;;29.07;16.63;;;4.50;1.00;;;;;;5108495;28;20690;-82
2024/01/07 03:11:33;;;;;;;42.17;18.83;;;4.50;1.00;;;;;;5108671;28;20183;-83
2024/01/07 03:13:59;;;;;;;34.90;19.20;;;4.50;1.00;;;;;;5102918;28;20188;-84
2024/01/07 03:16:25;;;;;;;35.77;18.53;;;4.50;1.00;;;;;;5093894;28;20180;-83
2024/01/07 03:18:51;;;;;;;32.08;18.13;;;4.40;1.00;;;;;;5091136;28;20214;-82
2024/01/07 03:21:21;;;;;;;41.03;19.60;;;4.40;1.00;;;;;;5091890;28;20181;-85
2024/01/07 03:23:49;;;;;;;37.90;19.70;;;4.40;1.00;;;;;;5109460;28;20449;-83
2024/01/07 03:26:15;;;;;;;34.38;17.05;;;4.40;1.00;;;;;;5106830;28;20176;-83
2024/01/07 03:28:41;;;;;;;32.38;17.55;;;4.40;1.00;;;;;;5102737;28;20204;-83
2024/01/07 03:31:18;;;;;;;31.27;17.13;;;4.40;1.00;;;;;;5090309;28;20187;-82
2024/01/07 03:33:43;;;;;;;30.50;17.08;;;4.30;1.00;;;;;;5111799;28;20211;-83
2024/01/07 03:36:10;;;;;;;32.50;18.40;;;4.30;1.00;;;;;;5092478;28;20176;-83
2024/01/07 03:38:36;;;;;;;32.20;17.08;;;4.30;1.00;;;;;;5108135;28;20201;-83
2024/01/07 03:41:03;;;;;;;27.80;16.57;;;4.30;1.00;;;;;;5112622;28;20183;-84
2024/01/07 03:43:28;;;;;;;30.77;17.80;;;4.20;1.00;;;;;;5113251;28;20516;-84
2024/01/07 03:45:54;;;;;;;31.40;18.93;;;4.20;1.00;;;;;;5089739;28;20230;-82
2024/01/07 03:48:19;;;;;;;39.83;20.80;;;4.20;1.00;;;;;;5089047;28;20599;-81
2024/01/07 03:50:45;;;;;;;37.60;18.73;;;4.20;1.00;;;;;;5114953;28;20662;-84
2024/01/07 03:53:11;;;;;;;32.90;18.40;;;4.30;1.00;;;;;;5120136;28;20211;-82
2024/01/07 03:55:36;;;;;;;35.93;20.20;;;4.30;1.00;;;;;;5101508;28;20176;-85
2024/01/07 03:58:03;;;;;;;33.03;18.43;;;4.30;1.00;;;;;;5107683;28;20578;-83
2024/01/07 04:00:28;;;;;;;35.72;19.95;;;4.30;1.00;;;;;;5109170;28;20177;-84
2024/01/07 04:02:54;;;;;;;35.87;19.50;;;4.30;1.00;;;;;;5117821;28;20191;-83
2024/01/07 04:05:19;;;;;;;35.93;20.67;;;4.30;1.00;;;;;;5115964;28;20217;-82
2024/01/07 04:07:45;;;;;;;32.77;19.90;;;4.30;1.00;;;;;;5108870;28;20205;-83
2024/01/07 04:10:10;;;;;;;35.30;19.50;;;4.30;1.00;;;;;;5113500;28;20189;-85
2024/01/07 04:12:37;;;;;;;32.17;19.57;;;4.30;1.00;;;;;;5090606;28;20200;-88
2024/01/07 04:15:03;;;;;;;36.42;21.65;;;4.30;1.00;;;;;;5099201;28;20256;-85
2024/01/07 04:17:29;;;;;;;32.72;19.98;;;4.20;1.00;;;;;;5098330;28;20786;-85
2024/01/07 04:19:55;;;;;;;38.40;20.30;;;4.20;1.00;;;;;;5091614;28;20172;-87
2024/01/07 04:22:20;;;;;;;40.90;21.70;;;4.20;1.00;;;;;;5103992;28;20181;-86
2024/01/07 04:24:46;;;;;;;35.80;19.07;;;4.20;1.00;;;;;;5115752;28;20191;-85
2024/01/07 04:27:11;;;;;;;36.93;19.53;;;4.30;1.00;;;;;;5117261;28;20243;-84
2024/01/07 04:29:37;;;;;;;35.50;19.53;;;4.30;1.00;;;;;;5117640;28;20331;-85
2024/01/07 04:32:02;;;;;;;33.63;18.67;;;4.30;1.00;;;;;;5118784;28;20246;-85
2024/01/07 04:34:28;;;;;;;34.87;19.37;;;4.30;1.00;;;;;;5112473;28;20176;-85
2024/01/07 04:36:53;;;;;;;35.30;20.97;;;4.30;1.00;;;;;;5097796;28;20714;-87
2024/01/07 04:39:19;;;;;;;32.57;20.13;;;4.30;1.00;;;;;;5089936;28;20295;-86
2024/01/07 04:41:44;;;;;;;37.87;22.30;;;4.30;1.00;;;;;;5089798;28;20258;-87
2024/01/07 04:44:10;;;;;;;38.23;20.13;;;4.30;1.00;;;;;;5097988;28;20203;-84
2024/01/07 04:46:40;;;;;;;29.90;18.73;;;4.30;1.00;;;;;;5109688;28;20180;-86
2024/01/07 04:49:06;;;;;;;38.70;21.80;;;4.30;1.00;;;;;;5092159;28;20209;-85
2024/01/07 04:51:32;;;;;;;38.63;21.60;;;4.30;1.00;;;;;;5106993;28;20749;-86
2024/01/07 04:53:58;;;;;;;42.00;21.13;;;4.30;1.00;;;;;;5101817;28;20186;-85
2024/01/07 04:56:23;;;;;;;43.37;22.80;;;4.30;1.00;;;;;;5079019;28;20177;-84
2024/01/07 04:58:49;;;;;;;38.70;21.33;;;4.30;1.00;;;;;;5089260;28;20192;-84
2024/01/07 05:01:15;;;;;;;42.97;23.70;;;4.30;1.00;;;;;;5111095;28;20176;-84
2024/01/07 05:03:41;;;;;;;48.93;25.03;;;4.20;1.00;;;;;;5110860;28;20593;-85
2024/01/07 05:06:09;;;;;;;48.80;23.60;;;4.20;1.00;;;;;;5094462;28;20212;-86
2024/01/07 05:08:40;;;;;;;38.83;23.00;;;4.20;1.00;;;;;;5080911;28;20474;-86
2024/01/07 05:11:06;;;;;;;42.90;24.80;;;4.20;1.00;;;;;;5107980;28;20184;-85
2024/01/07 05:13:31;;;;;;;35.00;21.77;;;4.20;1.00;;;;;;5111785;28;20231;-85
2024/01/07 05:15:57;;;;;;;41.17;22.97;;;4.20;1.00;;;;;;5104194;28;20585;-85
2024/01/07 05:18:23;;;;;;;43.73;23.27;;;4.20;1.00;;;;;;5083204;28;20208;-83
2024/01/07 05:20:49;;;;;;;44.40;24.10;;;4.10;1.00;;;;;;5107074;28;20180;-85
2024/01/07 05:23:15;;;;;;;38.45;22.17;;;4.10;1.00;;;;;;5115351;28;20214;-85
2024/01/07 05:25:43;;;;;;;39.23;21.80;;;4.00;1.00;;;;;;5095733;28;20184;-84
2024/01/07 05:28:08;;;;;;;38.03;21.95;;;4.00;1.00;;;;;;5115795;28;20554;-85
2024/01/07 05:30:34;;;;;;;36.30;20.87;;;4.00;1.00;;;;;;5104062;28;20278;-86
2024/01/07 05:32:59;;;;;;;42.70;22.20;;;4.00;1.00;;;;;;5101927;28;20212;-85
2024/01/07 05:35:25;;;;;;;33.37;20.07;;;4.00;1.00;;;;;;5117258;28;20191;-86
2024/01/07 05:37:50;;;;;;;30.43;18.63;;;4.00;1.00;;;;;;5112914;28;20203;-87
2024/01/07 05:40:16;;;;;;;34.13;19.43;;;4.00;1.00;;;;;;5091511;28;20654;-85
2024/01/07 05:42:41;;;;;;;31.50;19.30;;;4.10;1.00;;;;;;5108801;28;20180;-85
2024/01/07 05:45:07;;;;;;;30.00;18.80;;;4.00;1.00;;;;;;5098238;28;20188;-86
2024/01/07 05:47:33;;;;;;;29.03;16.57;;;4.00;1.00;;;;;;5116735;28;20239;-87
2024/01/07 05:49:58;;;;;;;29.83;18.20;;;4.00;1.00;;;;;;5109563;28;20180;-84
2024/01/07 05:52:24;;;;;;;27.03;17.97;;;3.90;99.90;;;;;;5090250;28;20200;-85
2024/01/07 05:54:49;;;;;;;29.93;18.37;;;3.90;1.00;;;;;;5113624;28;20187;-85
2024/01/07 05:57:15;;;;;;;27.17;18.50;;;3.90;1.00;;;;;;5115345;28;20184;-86
2024/01/07 05:59:40;;;;;;;33.47;18.07;;;3.90;99.90;;;;;;5112823;28;20722;-85
2024/01/07 06:02:06;;;;;;;32.20;18.77;;;3.90;99.90;;;;;;5089377;28;20191;-86
2024/01/07 06:04:31;;;;;;;28.83;18.80;;;3.80;99.90;;;;;;5108138;28;20187;-85
2024/01/07 06:06:58;;;;;;;33.10;21.40;;;3.80;1.00;;;;;;5115331;28;20184;-86
2024/01/07 06:09:23;;;;;;;27.75;18.33;;;3.80;1.00;;;;;;5108693;28;20224;-85
2024/01/07 06:11:49;;;;;;;30.23;20.13;;;3.80;1.00;;;;;;5109813;28;20190;-85
2024/01/07 06:14:15;;;;;;;31.43;19.10;;;3.80;1.00;;;;;;5100424;28;20233;-88
2024/01/07 06:16:41;;;;;;;34.22;21.70;;;3.80;1.00;;;;;;5098452;28;20594;-85
2024/01/07 06:19:07;;;;;;;36.15;19.80;;;3.80;1.00;;;;;;5105699;28;20200;-85
2024/01/07 06:21:32;;;;;;;34.87;20.77;;;3.80;1.00;;;;;;5110545;28;20184;-86
2024/01/07 06:23:58;;;;;;;34.20;19.60;;;3.80;1.00;;;;;;5107531;28;20176;-83
2024/01/07 06:26:23;;;;;;;31.43;21.27;;;3.70;1.00;;;;;;5102015;28;20267;-84
2024/01/07 06:28:50;;;;;;;30.60;19.00;;;3.60;1.00;;;;;;5100770;28;20581;-84
2024/01/07 06:31:15;;;;;;;24.70;16.60;;;3.60;1.00;;;;;;5091141;28;20260;-85
2024/01/07 06:33:41;;;;;;;29.83;18.20;;;3.60;1.00;;;;;;5106627;28;20211;-86
2024/01/07 06:36:07;;;;;;;30.83;20.60;;;3.50;1.00;;;;;;5083484;28;20187;-84
2024/01/07 06:38:33;;;;;;;31.92;21.42;;;3.50;1.00;;;;;;5084235;28;20450;-86
2024/01/07 06:41:01;;;;;;;35.92;21.45;;;3.50;1.00;;;;;;5090619;28;20556;-86
2024/01/07 06:43:28;;;;;;;34.65;22.20;;;3.50;1.00;;;;;;5108367;28;20181;-85
2024/01/07 06:45:53;;;;;;;28.95;18.95;;;3.40;1.00;;;;;;5089097;28;20214;-85
2024/01/07 06:48:19;;;;;;;30.17;19.60;;;3.40;1.00;;;;;;5110511;28;20224;-86
2024/01/07 06:50:44;;;;;;;33.53;21.30;;;3.40;1.00;;;;;;5092805;28;20540;-84
2024/01/07 06:53:10;;;;;;;30.70;18.87;;;3.40;1.00;;;;;;5082788;28;20437;-88
2024/01/07 06:55:36;;;;;;;29.20;19.23;;;3.40;1.00;;;;;;5092078;28;20188;-85
2024/01/07 06:58:02;;;;;;;30.92;19.67;;;3.40;1.00;;;;;;5108633;28;20222;-87
2024/01/07 07:00:28;;;;;;;25.83;18.60;;;3.30;1.00;;;;;;5088773;28;20188;-84
2024/01/07 07:02:53;;;;;;;25.70;17.87;;;3.30;1.00;;;;;;5111883;28;20638;-84
2024/01/07 07:05:19;;;;;;;24.10;15.40;;;3.20;99.90;;;;;;5096161;28;20244;-88
2024/01/07 07:07:45;;;;;;;29.97;18.33;;;3.20;99.90;;;;;;5113593;28;20203;-85
2024/01/07 07:10:11;;;;;;;26.23;16.27;;;3.20;99.90;;;;;;5110961;28;20179;-85
2024/01/07 07:12:36;;;;;;;30.30;19.17;;;3.20;99.90;;;;;;5087762;28;20204;-85
2024/01/07 07:15:02;;;;;;;24.57;17.77;;;3.20;99.90;;;;;;5109221;28;20556;-89
2024/01/07 07:17:28;;;;;;;29.07;18.10;;;3.20;99.90;;;;;;5119866;28;20267;-85
2024/01/07 07:19:53;;;;;;;30.67;19.17;;;3.20;99.90;;;;;;5097541;28;20440;-86
2024/01/07 07:22:19;;;;;;;25.37;17.20;;;3.20;1.00;;;;;;5116447;28;20195;-85
2024/01/07 07:24:44;;;;;;;23.30;16.43;;;3.20;1.00;;;;;;5107383;28;20181;-86
2024/01/07 07:27:10;;;;;;;33.23;20.73;;;3.20;99.90;;;;;;5117418;28;20259;-86
2024/01/07 07:29:35;;;;;;;33.67;21.50;;;3.20;99.90;;;;;;5118892;28;20204;-85
2024/01/07 07:32:01;;;;;;;23.33;16.43;;;3.20;99.90;;;;;;5114299;28;20227;-84
2024/01/07 07:34:27;;;;;;;29.97;18.23;;;3.10;1.00;;;;;;5109672;28;20185;-85
2024/01/07 07:36:52;;;;;;;29.00;19.03;;;3.20;1.00;;;;;;5100701;28;20519;-85
2024/01/07 07:39:18;;;;;;;30.27;19.63;;;3.30;99.90;;;;;;5111705;28;20192;-85
2024/01/07 07:41:43;;;;;;;32.00;19.83;;;3.30;99.90;;;;;;5097667;28;20172;-85
2024/01/07 07:44:09;;;;;;;29.33;19.30;;;3.30;99.90;;;;;;5104667;28;20653;-85
2024/01/07 07:46:34;;;;;;;27.33;17.43;;;3.30;99.90;;;;;;5115776;28;20187;-85
2024/01/07 07:49:01;;;;;;;28.57;17.70;;;3.20;99.90;;;;;;5097568;28;20196;-83
2024/01/07 07:51:26;;;;;;;27.27;19.35;;;3.20;99.90;;;;;;5091814;28;20182;-85
2024/01/07 07:53:52;;;;;;;30.37;19.23;;;3.20;99.90;;;;;;5111686;28;20207;-85
2024/01/07 07:56:17;;;;;;;29.00;19.00;;;3.20;99.90;;;;;;5090191;28;20172;-85
2024/01/07 07:58:43;;;;;;;25.23;15.80;;;3.20;99.90;;;;;;5113683;28;20207;-85
2024/01/07 08:01:08;;;;;;;27.63;17.43;;;3.20;1.00;;;;;;5095109;28;20207;-85
2024/01/07 08:03:34;;;;;;;28.90;17.30;;;3.20;1.00;;;;;;5113745;28;20188;-86
2024/01/07 08:06:00;;;;;;;34.20;17.77;;;3.20;1.00;;;;;;5113668;28;20211;-85
2024/01/07 08:08:25;;;;;;;35.70;16.43;;;3.20;99.90;;;;;;5113627;28;20701;-83
2024/01/07 08:10:51;;;;;;;34.50;19.63;;;3.20;99.90;;;;;;5093705;28;20193;-86
2024/01/07 08:13:16;;;;;;;28.20;19.87;;;3.20;99.90;;;;;;5094666;28;20207;-85
2024/01/07 08:15:42;;;;;;;31.30;18.57;;;3.10;99.90;;;;;;5114138;28;20552;-84
2024/01/07 08:18:08;;;;;;;31.00;19.63;;;3.10;99.90;;;;;;5114102;28;20282;-83
2024/01/07 08:20:33;;;;;;;29.00;18.60;;;3.10;99.90;;;;;;5116883;28;20478;-83
2024/01/07 08:23:00;;;;;;;29.30;19.47;;;3.00;99.90;;;;;;5103559;28;20196;-85
2024/01/07 08:25:25;;;;;;;31.40;18.60;;;3.00;99.90;;;;;;5099538;28;20214;-85
2024/01/07 08:27:51;;;;;;;30.40;17.33;;;3.00;99.90;;;;;;5120573;28;20693;-85
2024/01/07 08:30:16;;;;;;;24.67;16.70;;;3.10;99.90;;;;;;5099531;28;20196;-84
2024/01/07 08:32:42;;;;;;;25.90;16.50;;;3.00;99.90;;;;;;5114452;28;20208;-85
2024/01/07 08:35:07;;;;;;;27.20;17.10;;;3.00;99.90;;;;;;5110320;28;20185;-85
2024/01/07 08:37:33;;;;;;;26.70;16.07;;;3.00;99.90;;;;;;5119050;28;20189;-86
2024/01/07 08:39:59;;;;;;;32.17;20.60;;;3.00;99.90;;;;;;5119637;28;20354;-85
2024/01/07 08:42:25;;;;;;;30.85;18.23;;;3.00;99.90;;;;;;5117848;28;20654;-85
2024/01/07 08:44:50;;;;;;;32.77;17.77;;;3.00;99.90;;;;;;5094893;28;20219;-85
2024/01/07 08:47:16;;;;;;;29.10;19.30;;;3.00;99.90;;;;;;5115225;28;20316;-86
2024/01/07 08:49:41;;;;;;;25.10;18.33;;;2.90;99.90;;;;;;5118085;28;20329;-84
2024/01/07 08:52:07;;;;;;;28.43;17.53;;;2.90;99.90;;;;;;5117109;28;20580;-86
2024/01/07 08:54:33;;;;;;;22.80;13.90;;;2.90;99.90;;;;;;5119470;28;20180;-85
2024/01/07 08:56:58;;;;;;;25.70;18.07;;;2.90;99.90;;;;;;5111714;28;20173;-85
2024/01/07 08:59:24;;;;;;;29.47;19.43;;;2.90;69.70;;;;;;5119135;28;20480;-86
2024/01/07 09:01:49;;;;;;;31.70;19.73;;;2.90;99.90;;;;;;5117155;28;20689;-83
2024/01/07 09:04:17;;;;;;;22.93;15.67;;;2.90;99.90;;;;;;5114699;28;20180;-85
2024/01/07 09:06:45;;;;;;;26.42;16.88;;;2.90;92.30;;;;;;5115851;28;20176;-85
2024/01/07 09:09:11;;;;;;;23.42;16.52;;;2.90;99.90;;;;;;5095997;28;20208;-85
2024/01/07 09:11:36;;;;;;;26.63;17.03;;;2.90;99.90;;;;;;5111805;28;20228;-85
2024/01/07 09:14:03;;;;;;;29.13;16.73;;;2.90;99.90;;;;;;5094774;28;20224;-83
2024/01/07 09:16:29;;;;;;;27.05;17.00;;;2.80;99.90;;;;;;5092788;28;20946;-83
2024/01/07 09:18:54;;;;;;;30.35;17.90;;;2.80;99.90;;;;;;5113300;28;20222;-85
2024/01/07 09:21:20;;;;;;;32.70;17.47;;;2.80;99.90;;;;;;5094780;28;20196;-85
2024/01/07 09:23:45;;;;;;;25.30;15.70;;;2.80;99.90;;;;;;5112023;28;20600;-86
2024/01/07 09:26:11;;;;;;;22.53;13.60;;;2.80;99.90;;;;;;5112290;28;20187;-84
2024/01/07 09:28:36;;;;;;;23.13;15.17;;;2.80;99.90;;;;;;5090500;28;20200;-85
2024/01/07 09:31:02;;;;;;;25.60;15.60;;;2.80;99.90;;;;;;5087425;28;20564;-85
2024/01/07 09:33:28;;;;;;;19.60;12.17;;;2.80;99.90;;;;;;5109564;28;20593;-84
2024/01/07 09:35:56;;;;;;;21.70;15.13;;;2.70;1.00;;;;;;5114595;28;20188;-84
2024/01/07 09:38:22;;;;;;;25.20;14.88;;;2.70;1.00;;;;;;5097195;28;20430;-84
2024/01/07 09:40:47;;;;;;;25.17;15.57;;;2.80;1.00;;;;;;5117561;28;20200;-85
2024/01/07 09:43:13;;;;;;;19.63;15.00;;;2.80;99.90;;;;;;5117719;28;20183;-86
2024/01/07 09:45:41;;;;;;;25.27;16.53;;;2.90;19.80;;;;;;5093091;28;20414;-84
2024/01/07 09:48:07;;;;;;;26.10;15.45;;;2.90;1.00;;;;;;5087351;28;20200;-85
2024/01/07 09:50:33;;;;;;;24.57;15.00;;;2.90;1.00;;;;;;5096993;28;20184;-83
2024/01/07 09:53:02;;;;;;;17.50;12.63;;;2.90;1.00;;;;;;5114186;28;20226;-83
2024/01/07 09:55:39;;;;;;;20.08;14.55;;;2.90;1.00;;;;;;5085818;28;20204;-85
2024/01/07 09:58:05;;;;;;;23.17;13.45;;;2.90;1.00;;;;;;5103047;28;20221;-85
2024/01/07 10:00:31;;;;;;;21.27;13.60;;;2.90;1.00;;;;;;5105236;28;20184;-85
2024/01/07 10:02:56;;;;;;;23.23;13.82;;;2.90;1.00;;;;;;5114908;28;20206;-85
2024/01/07 10:05:22;;;;;;;20.20;15.63;;;2.90;1.00;;;;;;5117832;28;20173;-85
2024/01/07 10:07:47;;;;;;;24.50;15.00;;;2.80;1.00;;;;;;5112836;28;20256;-84
2024/01/07 10:10:17;;;;;;;18.93;14.30;;;2.80;1.00;;;;;;5111324;22;20233;-84
2024/01/07 10:12:46;;;;;;;19.42;14.68;;;2.90;45.90;;;;;;5071287;28;20220;-84
2024/01/07 10:15:12;;;;;;;20.70;13.38;;;2.90;1.00;;;;;;5076112;28;20181;-84
2024/01/07 10:17:39;;;;;;;18.85;12.30;;;2.90;1.00;;;;;;5071821;28;20177;-83
2024/01/07 10:20:09;;;;;;;25.73;15.85;;;2.90;99.90;;;;;;5054562;28;20649;-84
2024/01/07 10:22:34;;;;;;;17.17;12.93;;;2.90;99.90;;;;;;5066124;28;20188;-83
2024/01/07 10:25:00;;;;;;;15.73;11.30;;;3.00;99.90;;;;;;5072764;28;20180;-83
2024/01/07 10:27:25;;;;;;;21.80;12.20;;;3.00;99.90;;;;;;5072068;28;20189;-83
2024/01/07 10:29:51;;;;;;;23.53;13.80;;;3.00;99.90;;;;;;5080269;28;20263;-82
2024/01/07 10:32:19;;;;;;;23.87;14.80;;;3.10;1.00;;;;;;5072812;28;20236;-84
2024/01/07 10:34:49;;;;;;;19.00;12.30;;;3.00;99.90;;;;;;5071635;28;20235;-84
2024/01/07 10:37:15;;;;;;;17.38;10.50;;;3.00;1.00;;;;;;5056355;28;20258;-84
2024/01/07 10:39:40;;;;;;;16.20;11.80;;;3.00;1.00;;;;;;5075042;28;20202;-83
2024/01/07 10:42:07;;;;;;;17.90;12.40;;;3.00;99.90;;;;;;5053986;28;20181;-84
2024/01/07 10:44:33;;;;;;;20.48;12.30;;;3.00;99.90;;;;;;5074173;28;20264;-84
2024/01/07 10:46:59;;;;;;;19.43;13.40;;;3.00;1.00;;;;;;5075496;28;20212;-84
2024/01/07 10:49:27;;;;;;;21.17;12.87;;;2.90;99.90;;;;;;5055218;28;20490;-84
2024/01/07 10:51:55;;;;;;;20.10;13.65;;;3.00;99.90;;;;;;5054687;28;20444;-83
2024/01/07 10:54:23;;;;;;;18.15;12.68;;;2.90;99.90;;;;;;5071917;28;20188;-83
2024/01/07 10:56:52;;;;;;;19.65;13.25;;;2.90;1.00;;;;;;5079414;28;20187;-83
2024/01/07 10:59:19;;;;;;;16.23;11.10;;;2.90;99.90;;;;;;5078849;28;20197;-83
2024/01/07 11:01:45;;;;;;;22.05;13.50;;;2.90;99.90;;;;;;5074598;28;20185;-83
2024/01/07 11:04:20;;;;;;;15.37;10.17;;;2.90;1.00;;;;;;5055592;28;20655;-86
2024/01/07 11:07:02;;;;;;;16.35;10.60;;;3.00;99.90;;;;;;5065951;28;20587;-85
2024/01/07 11:09:39;;;;;;;21.33;13.73;;;3.00;1.00;;;;;;5065565;28;20217;-86
2024/01/07 11:12:05;;;;;;;17.23;11.55;;;3.00;99.90;;;;;;5073471;28;20239;-84
2024/01/07 11:14:35;;;;;;;17.15;12.55;;;3.00;99.90;;;;;;5078879;28;20185;-85
2024/01/07 11:17:02;;;;;;;17.58;11.68;;;3.00;1.00;;;;;;5057508;28;20236;-84
2024/01/07 11:19:28;;;;;;;17.48;11.77;;;3.10;1.00;;;;;;5069992;28;20280;-86
2024/01/07 11:22:13;;;;;;;14.10;10.97;;;3.10;22.00;;;;;;5053211;28;20201;-87
2024/01/07 11:24:40;;;;;;;20.15;13.55;;;3.10;1.00;;;;;;5067468;28;20185;-86
2024/01/07 11:27:09;;;;;;;19.33;12.23;;;3.10;99.90;;;;;;5054350;28;20185;-88
2024/01/07 11:29:35;;;;;;;17.80;11.73;;;3.10;99.90;;;;;;5073171;28;20240;-87
2024/01/07 11:32:01;;;;;;;17.48;12.43;;;3.10;1.00;;;;;;5059449;28;20216;-86
2024/01/07 11:34:43;;;;;;;17.80;12.60;;;3.00;1.00;;;;;;5068374;28;20603;-86
2024/01/07 11:37:13;;;;;;;19.27;13.07;;;3.00;49.80;;;;;;5063021;28;20205;-85
2024/01/07 11:39:43;;;;;;;18.45;11.80;;;2.90;99.90;;;;;;5070251;28;20336;-86
2024/01/07 11:42:09;;;;;;;16.50;11.48;;;2.90;99.90;;;;;;5060247;28;20186;-84
2024/01/07 11:44:36;;;;;;;18.10;12.20;;;2.90;13.70;;;;;;5072336;28;20197;-85
2024/01/07 11:47:03;;;;;;;15.65;11.35;;;2.80;1.00;;;;;;5055854;28;20276;-85
2024/01/07 11:49:29;;;;;;;19.73;12.07;;;2.80;99.90;;;;;;5068574;28;20705;-85
2024/01/07 11:51:55;;;;;;;19.00;12.50;;;2.80;99.90;;;;;;5066109;28;20193;-85
2024/01/07 11:54:20;;;;;;;18.27;11.30;;;2.80;99.90;;;;;;5067068;28;20226;-85
2024/01/07 11:56:46;;;;;;;20.63;12.90;;;2.80;1.00;;;;;;5078015;28;20188;-84
2024/01/07 11:59:12;;;;;;;20.00;13.47;;;2.80;99.90;;;;;;5072824;28;20212;-85
2024/01/07 12:01:37;;;;;;;21.13;13.43;;;2.80;18.50;;;;;;5077938;28;20185;-85
2024/01/07 12:04:07;;;;;;;20.20;13.40;;;2.80;99.90;;;;;;5058026;28;20199;-85
2024/01/07 12:06:33;;;;;;;16.00;10.20;;;2.80;99.90;;;;;;5058683;28;20191;-84
2024/01/07 12:08:58;;;;;;;15.87;11.00;;;2.80;99.90;;;;;;5068015;28;20759;-85
2024/01/07 12:11:24;;;;;;;13.70;10.60;;;2.80;99.90;;;;;;5069205;28;20639;-85
2024/01/07 12:13:50;;;;;;;18.70;12.00;;;2.80;1.00;;;;;;5079485;28;20284;-85
2024/01/07 12:16:16;;;;;;;17.15;11.93;;;2.90;1.00;;;;;;5078381;28;20201;-86
2024/01/07 12:18:42;;;;;;;19.80;13.43;;;2.80;99.90;;;;;;5073889;28;20201;-86
2024/01/07 12:21:08;;;;;;;22.20;13.00;;;2.80;99.90;;;;;;5074757;28;20427;-86
2024/01/07 12:23:37;;;;;;;19.27;11.77;;;2.80;99.90;;;;;;5075964;28;20431;-84
2024/01/07 12:26:10;;;;;;;15.27;9.90;;;2.80;99.90;;;;;;5076960;28;20427;-87
2024/01/07 12:28:37;;;;;;;19.27;11.77;;;2.80;99.90;;;;;;5072623;28;20212;-86
2024/01/07 12:31:05;;;;;;;13.60;9.95;;;2.80;1.00;;;;;;5072345;28;20173;-85
2024/01/07 12:33:31;;;;;;;14.13;10.45;;;2.80;99.90;;;;;;5058365;28;20197;-87
2024/01/07 12:35:58;;;;;;;13.87;10.00;;;2.80;99.90;;;;;;5076822;28;20184;-86
2024/01/07 12:38:27;;;;;;;17.38;11.88;;;2.80;99.90;;;;;;5078913;28;20432;-86